createdAt,value
2017-10-09T00:00:12.556Z,9.55
2017-10-09T00:01:15.069Z,8.20
2017-10-09T00:02:17.605Z,11.90
2017-10-09T00:03:20.890Z,6.12
2017-10-09T00:04:23.416Z,7.53
2017-10-09T00:05:25.973Z,7.78
2017-10-09T00:06:28.506Z,10.63
2017-10-09T00:07:31.035Z,7.00
2017-10-09T00:08:33.556Z,10.52
2017-10-09T00:09:36.074Z,11.88
2017-10-09T00:10:38.624Z,8.38
2017-10-09T00:11:41.154Z,6.28
2017-10-09T00:12:43.679Z,4.70
2017-10-09T00:13:46.210Z,9.85
2017-10-09T00:14:49.013Z,10.25
2017-10-09T00:15:51.579Z,17.35
2017-10-09T00:16:54.876Z,7.35
2017-10-09T00:17:57.399Z,13.18
2017-10-09T00:18:59.920Z,8.75
2017-10-09T00:20:02.477Z,7.72
2017-10-09T00:21:04.999Z,15.55
2017-10-09T00:22:07.524Z,12.65
2017-10-09T00:23:10.054Z,7.93
2017-10-09T00:24:13.330Z,6.60
2017-10-09T00:25:15.885Z,11.98
2017-10-09T00:26:18.519Z,9.02
2017-10-09T00:27:21.033Z,10.52
2017-10-09T00:28:24.314Z,10.70
2017-10-09T00:31:05.556Z,6.78
2017-10-09T00:32:08.076Z,8.35
2017-10-09T00:33:11.363Z,8.68
2017-10-09T00:34:13.883Z,18.20
2017-10-09T00:35:16.393Z,8.80
2017-10-09T00:36:18.977Z,10.95
2017-10-09T00:37:21.500Z,17.25
2017-10-09T00:38:24.014Z,8.25
2017-10-09T00:39:26.554Z,8.85
2017-10-09T00:40:29.088Z,12.02
2017-10-09T00:41:31.630Z,4.07
2017-10-09T00:42:34.192Z,8.00
2017-10-09T00:43:36.707Z,12.32
2017-10-09T00:44:39.992Z,13.00
2017-10-09T00:45:43.290Z,8.00
2017-10-09T00:46:45.817Z,8.77
2017-10-09T00:47:48.368Z,10.90
2017-10-09T00:48:50.926Z,4.32
2017-10-09T00:49:53.449Z,17.12
2017-10-09T00:50:56.750Z,17.77
2017-10-09T00:51:59.261Z,7.22
2017-10-09T00:53:01.820Z,11.07
2017-10-09T00:54:04.350Z,8.68
2017-10-09T00:55:06.885Z,16.65
2017-10-09T00:56:10.209Z,9.27
2017-10-09T00:57:12.768Z,9.68
2017-10-09T00:58:15.303Z,9.15
2017-10-09T00:59:18.585Z,10.07
2017-10-09T01:00:21.901Z,11.12
2017-10-09T01:01:24.433Z,5.47
2017-10-09T01:02:27.771Z,7.60
2017-10-09T01:03:30.288Z,13.95
2017-10-09T01:04:33.614Z,9.10
2017-10-09T01:05:36.132Z,7.37
2017-10-09T01:06:39.415Z,5.90
2017-10-09T01:07:42.715Z,9.48
2017-10-09T01:08:45.243Z,4.50
2017-10-09T01:09:47.805Z,5.12
2017-10-09T01:10:50.399Z,3.40
2017-10-09T01:11:53.054Z,7.57
2017-10-09T01:12:55.584Z,12.20
2017-10-09T01:13:58.149Z,7.40
2017-10-09T01:15:00.661Z,8.90
2017-10-09T01:16:03.956Z,18.95
2017-10-09T01:17:07.289Z,12.52
2017-10-09T01:18:09.806Z,7.97
2017-10-09T01:19:13.101Z,9.85
2017-10-09T01:20:15.639Z,8.35
2017-10-09T01:21:18.946Z,10.52
2017-10-09T01:22:22.261Z,5.37
2017-10-09T01:23:24.781Z,8.10
2017-10-09T01:24:28.109Z,11.80
2017-10-09T01:25:30.641Z,12.98
2017-10-09T01:26:33.940Z,10.38
2017-10-09T01:27:36.468Z,20.25
2017-10-09T01:28:39.000Z,9.32
2017-10-09T01:29:41.559Z,8.48
2017-10-09T01:30:44.096Z,9.38
2017-10-09T01:31:46.648Z,3.95
2017-10-09T01:32:49.946Z,3.55
2017-10-09T01:33:53.237Z,11.27
2017-10-09T01:34:55.750Z,8.05
2017-10-09T01:35:58.304Z,9.35
2017-10-09T01:37:00.841Z,7.45
2017-10-09T01:38:03.362Z,10.98
2017-10-09T01:39:05.874Z,4.75
2017-10-09T01:40:08.439Z,9.13
2017-10-09T01:41:10.958Z,11.77
2017-10-09T01:42:13.472Z,18.17
2017-10-09T01:43:16.025Z,17.20
2017-10-09T01:44:18.553Z,14.05
2017-10-09T01:45:21.067Z,14.43
2017-10-09T01:46:23.898Z,11.93
2017-10-09T01:47:26.429Z,13.50
2017-10-09T01:48:29.002Z,12.73
2017-10-09T01:49:31.528Z,11.93
2017-10-09T01:50:34.805Z,14.38
2017-10-09T01:51:38.096Z,23.00
2017-10-09T01:52:40.613Z,5.80
2017-10-09T01:53:43.168Z,9.57
2017-10-09T01:54:45.688Z,15.32
2017-10-09T01:55:48.982Z,6.82
2017-10-09T01:56:51.511Z,11.00
2017-10-09T01:57:54.037Z,10.52
2017-10-09T01:58:56.609Z,11.55
2017-10-09T01:59:59.133Z,10.52
2017-10-09T02:01:01.779Z,9.65
2017-10-09T02:02:04.330Z,6.22
2017-10-09T02:03:06.950Z,18.77
2017-10-09T02:04:09.469Z,7.12
2017-10-09T02:05:12.810Z,8.90
2017-10-09T02:06:15.326Z,11.55
2017-10-09T02:07:17.853Z,7.87
2017-10-09T02:08:20.402Z,15.30
2017-10-09T02:09:22.928Z,9.45
2017-10-09T02:10:25.497Z,13.98
2017-10-09T02:11:28.014Z,5.62
2017-10-09T02:12:30.530Z,7.57
2017-10-09T02:13:33.047Z,6.75
2017-10-09T02:14:35.560Z,5.35
2017-10-09T02:15:38.109Z,13.02
2017-10-09T02:16:40.640Z,12.25
2017-10-09T02:17:43.158Z,8.68
2017-10-09T02:18:45.675Z,7.18
2017-10-09T02:19:48.229Z,8.70
2017-10-09T02:20:50.803Z,9.15
2017-10-09T02:21:53.313Z,6.45
2017-10-09T02:22:57.338Z,6.82
2017-10-09T02:23:59.860Z,5.07
2017-10-09T02:25:02.439Z,7.65
2017-10-09T02:26:04.957Z,14.27
2017-10-09T02:27:07.471Z,13.25
2017-10-09T02:28:09.997Z,8.77
2017-10-09T02:29:12.514Z,7.10
2017-10-09T02:30:15.070Z,7.60
2017-10-09T02:31:17.586Z,7.60
2017-10-09T02:32:20.113Z,9.80
2017-10-09T02:33:22.671Z,7.53
2017-10-09T02:34:25.189Z,9.43
2017-10-09T02:35:27.703Z,11.48
2017-10-09T02:36:30.235Z,9.82
2017-10-09T02:37:32.753Z,9.00
2017-10-09T02:38:36.077Z,7.40
2017-10-09T02:39:38.632Z,10.25
2017-10-09T02:40:41.146Z,7.62
2017-10-09T02:41:43.665Z,8.65
2017-10-09T02:42:46.197Z,6.55
2017-10-09T02:43:48.709Z,4.70
2017-10-09T02:44:51.269Z,12.15
2017-10-09T02:45:53.781Z,11.43
2017-10-09T02:46:56.310Z,8.63
2017-10-09T02:47:58.838Z,14.95
2017-10-09T02:49:02.132Z,9.02
2017-10-09T02:50:04.712Z,10.82
2017-10-09T02:51:07.230Z,8.57
2017-10-09T02:52:09.767Z,9.52
2017-10-09T02:53:12.285Z,6.10
2017-10-09T02:54:14.793Z,9.77
2017-10-09T02:55:17.345Z,5.72
2017-10-09T02:56:19.875Z,10.23
2017-10-09T02:57:23.160Z,10.70
2017-10-09T02:58:26.445Z,9.65
2017-10-09T02:59:29.795Z,11.48
2017-10-09T03:00:32.314Z,6.68
2017-10-09T03:01:34.835Z,11.05
2017-10-09T03:02:37.350Z,7.75
2017-10-09T03:03:39.874Z,8.55
2017-10-09T03:04:43.217Z,4.90
2017-10-09T03:05:45.733Z,5.45
2017-10-09T03:06:49.009Z,7.00
2017-10-09T03:07:51.518Z,8.05
2017-10-09T03:08:54.038Z,7.32
2017-10-09T03:09:56.587Z,10.50
2017-10-09T03:10:59.150Z,16.95
2017-10-09T03:12:01.686Z,12.10
2017-10-09T03:13:04.212Z,5.28
2017-10-09T03:14:07.513Z,7.47
2017-10-09T03:15:10.081Z,8.73
2017-10-09T03:16:12.625Z,6.78
2017-10-09T03:17:15.934Z,6.72
2017-10-09T03:18:18.462Z,6.53
2017-10-09T03:19:20.981Z,5.85
2017-10-09T03:20:23.497Z,8.90
2017-10-09T03:21:26.041Z,7.32
2017-10-09T03:22:33.446Z,11.38
2017-10-09T03:23:40.608Z,9.35
2017-10-09T03:24:53.044Z,5.50
2017-10-09T03:26:01.831Z,15.85
2017-10-09T03:27:15.178Z,9.10
2017-10-09T03:28:18.648Z,10.50
2017-10-09T03:29:27.683Z,12.37
2017-10-09T03:30:30.199Z,9.02
2017-10-09T03:31:32.708Z,7.85
2017-10-09T03:32:36.030Z,12.02
2017-10-09T03:33:38.549Z,5.72
2017-10-09T03:34:41.845Z,12.25
2017-10-09T03:35:45.131Z,11.50
2017-10-09T03:36:48.458Z,11.55
2017-10-09T03:37:51.002Z,11.30
2017-10-09T03:38:53.554Z,9.75
2017-10-09T03:39:56.077Z,8.27
2017-10-09T03:40:58.764Z,7.80
2017-10-09T03:42:02.077Z,9.82
2017-10-09T03:43:04.701Z,10.13
2017-10-09T03:44:07.230Z,13.90
2017-10-09T03:45:09.937Z,7.68
2017-10-09T03:46:12.456Z,14.27
2017-10-09T03:47:14.969Z,8.15
2017-10-09T03:48:17.490Z,14.50
2017-10-09T03:49:20.006Z,10.73
2017-10-09T03:50:22.586Z,21.45
2017-10-09T03:51:25.874Z,15.48
2017-10-09T03:52:29.178Z,12.25
2017-10-09T03:53:31.708Z,7.50
2017-10-09T03:54:34.225Z,14.60
2017-10-09T03:55:36.804Z,11.52
2017-10-09T03:56:39.319Z,16.10
2017-10-09T03:57:42.622Z,12.20
2017-10-09T03:58:45.142Z,12.98
2017-10-09T03:59:47.665Z,13.48
2017-10-09T04:00:50.217Z,8.07
2017-10-09T04:01:52.781Z,15.30
2017-10-09T04:02:55.363Z,15.38
2017-10-09T04:03:57.869Z,6.97
2017-10-09T04:05:00.571Z,15.30
2017-10-09T04:06:03.876Z,26.77
2017-10-09T04:07:06.453Z,14.27
2017-10-09T04:08:08.982Z,10.80
2017-10-09T04:09:12.269Z,10.32
2017-10-09T04:10:15.553Z,20.12
2017-10-09T04:11:18.846Z,11.65
2017-10-09T04:12:21.413Z,16.12
2017-10-09T04:13:24.690Z,10.50
2017-10-09T04:14:27.965Z,11.63
2017-10-09T04:15:31.244Z,11.27
2017-10-09T04:16:34.546Z,12.43
2017-10-09T04:17:37.877Z,14.85
2017-10-09T04:18:40.402Z,15.23
2017-10-09T04:19:42.932Z,17.73
2017-10-09T04:20:45.462Z,23.10
2017-10-09T04:21:47.981Z,10.98
2017-10-09T04:22:51.310Z,16.92
2017-10-09T04:23:53.831Z,14.63
2017-10-09T04:24:57.158Z,18.55
2017-10-09T04:25:59.716Z,12.32
2017-10-09T04:27:02.283Z,17.27
2017-10-09T04:28:05.572Z,17.02
2017-10-09T04:29:08.118Z,17.60
2017-10-09T04:30:10.635Z,18.20
2017-10-09T04:31:13.158Z,17.37
2017-10-09T04:32:15.691Z,18.25
2017-10-09T04:33:18.237Z,16.62
2017-10-09T04:34:20.798Z,28.33
2017-10-09T04:35:23.315Z,20.75
2017-10-09T04:36:25.834Z,17.37
2017-10-09T04:37:28.357Z,20.12
2017-10-09T04:38:30.915Z,20.20
2017-10-09T04:39:33.430Z,18.85
2017-10-09T04:40:35.949Z,15.68
2017-10-09T04:41:38.478Z,18.65
2017-10-09T04:42:41.774Z,21.08
2017-10-09T04:43:45.106Z,25.55
2017-10-09T04:44:47.624Z,20.27
2017-10-09T04:45:50.912Z,13.62
2017-10-09T04:46:54.194Z,24.00
2017-10-09T04:47:57.477Z,20.17
2017-10-09T04:49:00.042Z,18.10
2017-10-09T04:50:03.330Z,20.12
2017-10-09T04:51:06.613Z,21.98
2017-10-09T04:52:09.902Z,23.92
2017-10-09T04:53:13.195Z,25.45
2017-10-09T04:54:15.790Z,26.00
2017-10-09T04:55:18.319Z,24.77
2017-10-09T04:56:21.602Z,16.58
2017-10-09T04:57:24.885Z,28.08
2017-10-09T04:58:28.172Z,29.15
2017-10-09T04:59:31.485Z,23.80
2017-10-09T05:00:34.021Z,15.00
2017-10-09T05:01:37.349Z,22.00
2017-10-09T05:02:39.884Z,23.38
2017-10-09T05:03:42.421Z,21.77
2017-10-09T05:04:45.707Z,19.87
2017-10-09T05:05:48.998Z,22.67
2017-10-09T05:06:51.553Z,17.12
2017-10-09T05:07:54.838Z,15.93
2017-10-09T05:08:58.162Z,17.55
2017-10-09T05:10:00.699Z,25.55
2017-10-09T05:11:03.254Z,19.85
2017-10-09T05:12:06.554Z,18.30
2017-10-09T05:13:09.999Z,24.98
2017-10-09T05:14:12.554Z,19.55
2017-10-09T05:15:15.147Z,19.62
2017-10-09T05:16:17.669Z,29.55
2017-10-09T05:17:20.197Z,28.48
2017-10-09T05:18:23.499Z,27.80
2017-10-09T05:19:26.050Z,21.37
2017-10-09T05:20:29.349Z,15.00
2017-10-09T05:21:31.922Z,23.90
2017-10-09T05:22:34.441Z,21.87
2017-10-09T05:23:36.957Z,24.48
2017-10-09T05:24:39.484Z,21.35
2017-10-09T05:25:42.043Z,20.98
2017-10-09T05:26:44.578Z,22.00
2017-10-09T05:27:47.133Z,30.92
2017-10-09T05:28:49.658Z,23.45
2017-10-09T05:29:52.986Z,24.10
2017-10-09T05:30:55.504Z,25.62
2017-10-09T05:31:58.790Z,26.70
2017-10-09T05:33:01.333Z,27.02
2017-10-09T05:34:03.894Z,26.52
2017-10-09T05:35:06.415Z,24.33
2017-10-09T05:36:08.945Z,33.63
2017-10-09T05:37:12.273Z,27.87
2017-10-09T05:38:14.798Z,22.33
2017-10-09T05:39:18.082Z,23.38
2017-10-09T05:40:21.400Z,30.60
2017-10-09T05:41:24.016Z,25.17
2017-10-09T05:42:26.586Z,25.10
2017-10-09T05:43:29.102Z,24.87
2017-10-09T05:44:31.634Z,25.15
2017-10-09T05:45:34.919Z,30.17
2017-10-09T05:46:38.193Z,24.85
2017-10-09T05:47:40.746Z,26.92
2017-10-09T05:48:43.309Z,22.92
2017-10-09T05:49:45.825Z,26.95
2017-10-09T05:50:48.394Z,22.20
2017-10-09T05:51:50.922Z,25.25
2017-10-09T05:52:53.490Z,23.38
2017-10-09T05:53:56.021Z,19.70
2017-10-09T05:54:58.566Z,27.77
2017-10-09T05:56:01.089Z,32.25
2017-10-09T05:57:04.399Z,27.75
2017-10-09T05:58:07.133Z,19.12
2017-10-09T05:59:10.454Z,23.20
2017-10-09T06:00:12.986Z,30.77
2017-10-09T06:01:15.518Z,34.13
2017-10-09T06:02:18.040Z,22.05
2017-10-09T06:03:20.603Z,23.58
2017-10-09T06:04:23.886Z,27.13
2017-10-09T06:05:27.179Z,28.17
2017-10-09T06:06:30.468Z,25.98
2017-10-09T06:07:32.996Z,27.17
2017-10-09T06:08:35.568Z,21.33
2017-10-09T06:09:38.095Z,24.05
2017-10-09T06:10:40.623Z,24.65
2017-10-09T06:11:43.970Z,26.50
2017-10-09T06:12:46.494Z,23.87
2017-10-09T06:13:49.010Z,22.25
2017-10-09T06:14:51.547Z,28.38
2017-10-09T06:15:54.064Z,20.00
2017-10-09T06:16:57.408Z,31.25
2017-10-09T06:17:59.950Z,24.98
2017-10-09T06:19:02.525Z,23.12
2017-10-09T06:20:05.052Z,22.27
2017-10-09T06:21:07.593Z,28.25
2017-10-09T06:22:10.116Z,30.27
2017-10-09T06:23:12.629Z,24.58
2017-10-09T06:24:15.186Z,26.08
2017-10-09T06:25:17.752Z,25.48
2017-10-09T06:26:20.274Z,24.83
2017-10-09T06:27:22.817Z,23.10
2017-10-09T06:28:26.105Z,21.98
2017-10-09T06:29:29.423Z,28.45
2017-10-09T06:30:31.956Z,24.23
2017-10-09T06:31:35.235Z,30.80
2017-10-09T06:32:38.518Z,31.10
2017-10-09T06:33:41.852Z,27.13
2017-10-09T06:34:44.387Z,27.95
2017-10-09T06:35:46.938Z,23.83
2017-10-09T06:36:49.461Z,27.35
2017-10-09T06:37:51.990Z,23.73
2017-10-09T06:38:54.515Z,32.92
2017-10-09T06:39:57.051Z,24.92
2017-10-09T06:40:59.617Z,27.87
2017-10-09T06:42:02.145Z,24.10
2017-10-09T06:43:04.693Z,35.20
2017-10-09T06:44:07.236Z,25.35
2017-10-09T06:45:09.760Z,25.85
2017-10-09T06:46:12.339Z,28.12
2017-10-09T06:47:14.940Z,23.92
2017-10-09T06:48:18.243Z,26.10
2017-10-09T06:49:21.577Z,27.25
2017-10-09T06:50:24.098Z,28.80
2017-10-09T06:51:26.626Z,25.48
2017-10-09T06:52:29.148Z,32.50
2017-10-09T06:53:31.665Z,17.65
2017-10-09T06:54:34.232Z,22.30
2017-10-09T06:55:36.767Z,42.17
2017-10-09T06:56:39.290Z,30.48
2017-10-09T06:57:42.577Z,20.95
2017-10-09T06:58:45.159Z,25.35
2017-10-09T06:59:47.683Z,32.63
2017-10-09T07:00:50.216Z,22.50
2017-10-09T07:01:52.782Z,25.12
2017-10-09T07:02:55.330Z,32.45
2017-10-09T07:03:57.850Z,28.45
2017-10-09T07:05:00.375Z,32.95
2017-10-09T07:06:02.905Z,26.33
2017-10-09T07:07:06.244Z,27.05
2017-10-09T07:08:08.774Z,31.55
2017-10-09T07:09:11.292Z,27.85
2017-10-09T07:10:13.825Z,30.02
2017-10-09T07:11:16.423Z,31.33
2017-10-09T07:12:19.009Z,34.60
2017-10-09T07:13:22.303Z,30.37
2017-10-09T07:14:25.607Z,38.10
2017-10-09T07:15:28.135Z,31.52
2017-10-09T07:16:30.657Z,32.10
2017-10-09T07:17:33.221Z,35.42
2017-10-09T07:18:35.754Z,37.00
2017-10-09T07:19:38.281Z,45.22
2017-10-09T07:20:40.802Z,33.78
2017-10-09T07:21:43.337Z,35.30
2017-10-09T07:22:46.675Z,28.87
2017-10-09T07:23:49.197Z,31.48
2017-10-09T07:24:52.493Z,27.55
2017-10-09T07:25:55.035Z,30.12
2017-10-09T07:26:57.604Z,32.90
2017-10-09T07:28:00.902Z,29.67
2017-10-09T07:29:04.206Z,39.83
2017-10-09T07:30:06.746Z,66.55
2017-10-09T07:31:10.074Z,48.38
2017-10-09T07:32:12.632Z,36.25
2017-10-09T07:33:15.166Z,36.28
2017-10-09T07:34:18.457Z,32.50
2017-10-09T07:35:21.033Z,30.15
2017-10-09T07:36:23.568Z,38.92
2017-10-09T07:37:26.873Z,39.17
2017-10-09T07:38:29.403Z,28.62
2017-10-09T07:39:31.917Z,30.00
2017-10-09T07:40:34.502Z,31.40
2017-10-09T07:41:37.032Z,35.17
2017-10-09T07:42:39.569Z,30.60
2017-10-09T07:43:42.101Z,29.33
2017-10-09T07:44:44.645Z,28.60
2017-10-09T07:45:47.215Z,31.45
2017-10-09T07:46:49.743Z,32.30
2017-10-09T07:47:53.049Z,32.03
2017-10-09T07:48:55.564Z,30.88
2017-10-09T07:49:58.121Z,31.80
2017-10-09T07:51:00.650Z,27.75
2017-10-09T07:52:03.202Z,35.45
2017-10-09T07:53:06.497Z,28.50
2017-10-09T07:54:09.070Z,31.25
2017-10-09T07:55:11.643Z,32.80
2017-10-09T07:56:14.169Z,29.30
2017-10-09T07:57:19.633Z,28.35
2017-10-09T07:58:22.169Z,28.95
2017-10-09T07:59:24.737Z,31.42
2017-10-09T08:00:27.305Z,30.33
2017-10-09T08:01:30.597Z,28.38
2017-10-09T08:02:33.885Z,26.95
2017-10-09T08:03:37.178Z,27.73
2017-10-09T08:05:48.786Z,42.62
2017-10-09T08:06:51.316Z,33.58
2017-10-09T08:07:54.625Z,28.42
2017-10-09T08:08:57.162Z,38.38
2017-10-09T08:10:00.463Z,31.62
2017-10-09T08:11:03.030Z,30.77
2017-10-09T08:12:05.569Z,32.13
2017-10-09T08:13:08.084Z,24.30
2017-10-09T08:14:10.614Z,27.92
2017-10-09T08:16:23.779Z,33.28
2017-10-09T08:17:26.313Z,30.90
2017-10-09T08:18:29.637Z,31.30
2017-10-09T08:19:32.190Z,31.80
2017-10-09T08:20:34.713Z,29.45
2017-10-09T08:21:38.010Z,25.30
2017-10-09T08:22:40.582Z,32.33
2017-10-09T08:23:43.868Z,26.33
2017-10-09T08:24:47.171Z,26.02
2017-10-09T08:25:49.701Z,28.65
2017-10-09T08:26:52.999Z,26.60
2017-10-09T08:27:55.578Z,31.70
2017-10-09T08:28:58.105Z,33.83
2017-10-09T08:30:00.639Z,24.17
2017-10-09T08:31:03.165Z,40.85
2017-10-09T08:32:06.453Z,28.40
2017-10-09T08:33:09.023Z,37.17
2017-10-09T08:34:11.558Z,23.98
2017-10-09T08:35:14.096Z,32.03
2017-10-09T08:36:16.634Z,27.05
2017-10-09T08:37:19.213Z,32.97
2017-10-09T08:38:21.754Z,31.50
2017-10-09T08:39:24.363Z,27.08
2017-10-09T08:40:26.910Z,37.17
2017-10-09T08:41:29.441Z,29.92
2017-10-09T08:42:32.768Z,28.73
2017-10-09T08:43:35.302Z,23.45
2017-10-09T08:44:37.839Z,24.33
2017-10-09T08:45:40.369Z,20.35
2017-10-09T08:46:42.938Z,22.40
2017-10-09T08:47:45.471Z,23.02
2017-10-09T08:48:48.013Z,19.65
2017-10-09T08:49:51.307Z,33.03
2017-10-09T08:50:54.601Z,23.92
2017-10-09T08:51:57.163Z,23.30
2017-10-09T08:52:59.690Z,27.75
2017-10-09T08:54:02.221Z,23.12
2017-10-09T08:55:04.748Z,24.83
2017-10-09T08:56:08.044Z,21.50
2017-10-09T08:57:10.630Z,23.20
2017-10-09T08:58:13.163Z,19.67
2017-10-09T08:59:16.452Z,27.80
2017-10-09T09:00:19.749Z,25.42
2017-10-09T09:01:22.277Z,17.08
2017-10-09T09:02:24.838Z,20.85
2017-10-09T09:03:27.390Z,22.40
2017-10-09T09:04:29.966Z,22.05
2017-10-09T09:05:32.503Z,17.80
2017-10-09T09:06:35.047Z,19.25
2017-10-09T09:07:37.586Z,18.65
2017-10-09T09:08:40.117Z,19.58
2017-10-09T09:09:42.682Z,28.73
2017-10-09T09:10:45.205Z,22.10
2017-10-09T09:11:47.739Z,17.08
2017-10-09T09:12:50.280Z,18.17
2017-10-09T09:13:52.811Z,24.33
2017-10-09T09:14:55.383Z,18.65
2017-10-09T09:15:57.911Z,21.45
2017-10-09T09:17:01.259Z,20.05
2017-10-09T09:18:03.798Z,18.10
2017-10-09T09:19:06.332Z,12.68
2017-10-09T09:20:09.612Z,19.85
2017-10-09T09:21:12.129Z,22.75
2017-10-09T09:22:14.694Z,16.23
2017-10-09T09:23:17.321Z,17.10
2017-10-09T09:24:19.853Z,22.25
2017-10-09T09:25:22.382Z,17.98
2017-10-09T09:26:24.905Z,13.73
2017-10-09T09:27:28.246Z,13.77
2017-10-09T09:28:30.814Z,12.30
2017-10-09T09:29:33.330Z,27.20
2017-10-09T09:30:35.853Z,16.45
2017-10-09T09:31:38.412Z,19.55
2017-10-09T09:32:40.948Z,21.52
2017-10-09T09:33:43.481Z,12.00
2017-10-09T09:34:46.015Z,16.77
2017-10-09T09:35:48.543Z,15.77
2017-10-09T09:36:51.872Z,16.30
2017-10-09T09:37:54.406Z,12.07
2017-10-09T09:38:56.934Z,16.12
2017-10-09T09:39:59.462Z,18.30
2017-10-09T09:41:02.006Z,11.02
2017-10-09T09:42:04.557Z,14.10
2017-10-09T09:43:07.842Z,18.15
2017-10-09T09:44:10.402Z,14.55
2017-10-09T09:45:13.698Z,16.73
2017-10-09T09:46:16.247Z,12.88
2017-10-09T09:47:19.575Z,12.15
2017-10-09T09:48:22.117Z,16.08
2017-10-09T09:49:24.650Z,15.30
2017-10-09T09:50:27.183Z,17.33
2017-10-09T09:51:29.754Z,11.57
2017-10-09T09:52:32.269Z,13.07
2017-10-09T09:53:35.558Z,14.80
2017-10-09T09:54:38.093Z,15.23
2017-10-09T09:55:40.651Z,11.38
2017-10-09T09:56:43.189Z,9.18
2017-10-09T09:57:45.714Z,13.82
2017-10-09T09:58:49.040Z,12.57
2017-10-09T09:59:51.557Z,10.20
2017-10-09T10:00:54.844Z,13.82
2017-10-09T10:01:58.131Z,17.52
2017-10-09T10:03:01.425Z,11.68
2017-10-09T10:04:03.989Z,10.57
2017-10-09T10:05:06.514Z,8.68
2017-10-09T10:06:09.038Z,8.20
2017-10-09T10:07:11.622Z,10.90
2017-10-09T10:08:14.153Z,20.83
2017-10-09T10:09:16.677Z,9.77
2017-10-09T10:10:19.211Z,8.65
2017-10-09T10:11:21.749Z,11.30
2017-10-09T10:12:25.065Z,8.00
2017-10-09T10:13:27.635Z,10.30
2017-10-09T10:14:30.155Z,12.07
2017-10-09T10:15:33.438Z,11.52
2017-10-09T10:16:36.721Z,8.68
2017-10-09T10:17:40.014Z,8.43
2017-10-09T10:18:42.584Z,10.18
2017-10-09T10:19:45.117Z,14.18
2017-10-09T10:20:47.641Z,11.40
2017-10-09T10:21:50.161Z,13.93
2017-10-09T10:22:52.682Z,9.77
2017-10-09T10:23:55.249Z,10.88
2017-10-09T10:24:57.777Z,15.13
2017-10-09T10:26:01.062Z,10.10
2017-10-09T10:27:03.591Z,12.60
2017-10-09T10:28:06.154Z,9.93
2017-10-09T10:29:08.749Z,8.48
2017-10-09T10:30:12.037Z,9.18
2017-10-09T10:31:15.325Z,10.18
2017-10-09T10:32:18.605Z,11.50
2017-10-09T10:33:21.897Z,10.55
2017-10-09T10:34:24.479Z,21.95
2017-10-09T10:35:26.990Z,8.20
2017-10-09T10:36:29.517Z,17.10
2017-10-09T10:37:32.054Z,14.85
2017-10-09T10:38:35.342Z,11.38
2017-10-09T10:39:37.893Z,8.30
2017-10-09T10:40:41.181Z,12.02
2017-10-09T10:41:44.479Z,11.10
2017-10-09T10:42:47.029Z,8.57
2017-10-09T10:43:50.317Z,15.57
2017-10-09T10:44:53.612Z,12.15
2017-10-09T10:45:56.175Z,10.15
2017-10-09T10:46:58.694Z,7.68
2017-10-09T10:48:01.251Z,13.90
2017-10-09T10:49:03.780Z,11.60
2017-10-09T10:50:06.328Z,7.05
2017-10-09T10:51:09.627Z,10.30
2017-10-09T10:52:12.147Z,7.37
2017-10-09T10:53:14.706Z,4.45
2017-10-09T10:54:17.270Z,7.60
2017-10-09T10:55:19.793Z,11.38
2017-10-09T10:56:22.316Z,11.65
2017-10-09T10:57:24.845Z,16.50
2017-10-09T10:58:27.358Z,8.40
2017-10-09T10:59:30.701Z,5.30
2017-10-09T11:00:33.225Z,7.35
2017-10-09T11:01:36.506Z,8.80
2017-10-09T11:02:39.802Z,9.88
2017-10-09T11:03:42.336Z,9.57
2017-10-09T11:04:44.929Z,5.95
2017-10-09T11:05:48.226Z,5.78
2017-10-09T11:06:50.754Z,8.32
2017-10-09T11:07:53.272Z,11.10
2017-10-09T11:08:55.808Z,9.13
2017-10-09T11:09:59.133Z,9.23
2017-10-09T11:11:01.662Z,12.98
2017-10-09T11:12:04.958Z,6.75
2017-10-09T11:13:07.488Z,7.30
2017-10-09T11:14:10.041Z,9.10
2017-10-09T11:15:12.605Z,3.28
2017-10-09T11:16:15.134Z,9.82
2017-10-09T11:17:17.651Z,9.90
2017-10-09T11:18:20.959Z,9.73
2017-10-09T11:19:23.503Z,6.85
2017-10-09T11:20:26.064Z,8.88
2017-10-09T11:21:28.590Z,6.43
2017-10-09T11:22:31.156Z,7.43
2017-10-09T11:23:33.773Z,5.57
2017-10-09T11:24:37.058Z,6.32
2017-10-09T11:25:39.578Z,12.80
2017-10-09T11:26:42.111Z,4.62
2017-10-09T11:27:44.701Z,10.73
2017-10-09T11:28:47.225Z,11.73
2017-10-09T11:29:49.737Z,6.12
2017-10-09T11:30:52.265Z,11.23
2017-10-09T11:31:55.603Z,10.25
2017-10-09T11:32:58.119Z,3.30
2017-10-09T11:34:01.409Z,6.78
2017-10-09T11:35:03.938Z,2.97
2017-10-09T11:36:06.471Z,4.65
2017-10-09T11:37:09.034Z,11.63
2017-10-09T11:38:11.555Z,6.55
2017-10-09T11:39:14.855Z,3.80
2017-10-09T11:40:18.142Z,3.40
2017-10-09T11:41:20.692Z,7.28
2017-10-09T11:42:24.014Z,9.20
2017-10-09T11:43:26.574Z,5.07
2017-10-09T11:44:29.105Z,3.95
2017-10-09T11:45:32.450Z,8.45
2017-10-09T11:46:34.981Z,5.25
2017-10-09T11:47:37.501Z,8.15
2017-10-09T11:48:40.018Z,8.05
2017-10-09T11:49:42.549Z,2.62
2017-10-09T11:50:45.878Z,5.47
2017-10-09T11:51:48.390Z,9.20
2017-10-09T11:52:50.945Z,5.93
2017-10-09T11:53:53.477Z,4.10
2017-10-09T11:54:56.035Z,5.82
2017-10-09T11:55:58.559Z,8.68
2017-10-09T11:57:01.845Z,7.00
2017-10-09T11:58:05.169Z,4.45
2017-10-09T11:59:07.721Z,5.65
2017-10-09T12:00:10.246Z,9.90
2017-10-09T12:01:12.762Z,7.90
2017-10-09T12:02:15.327Z,6.32
2017-10-09T12:03:17.862Z,6.32
2017-10-09T12:04:21.145Z,4.95
2017-10-09T12:05:24.479Z,6.00
2017-10-09T12:06:27.001Z,7.80
2017-10-09T12:07:30.325Z,5.47
2017-10-09T12:08:32.838Z,2.15
2017-10-09T12:09:35.470Z,8.30
2017-10-09T12:10:37.998Z,3.25
2017-10-09T12:11:41.298Z,3.28
2017-10-09T12:12:43.840Z,1.62
2017-10-09T12:13:47.134Z,6.18
2017-10-09T12:14:49.687Z,4.60
2017-10-09T12:15:53.014Z,4.93
2017-10-09T12:16:55.539Z,9.82
2017-10-09T12:17:58.828Z,6.62
2017-10-09T12:19:02.128Z,3.40
2017-10-09T12:20:04.647Z,5.37
2017-10-09T12:21:07.209Z,4.70
2017-10-09T12:22:09.754Z,5.55
2017-10-09T12:23:12.281Z,1.55
2017-10-09T12:24:14.801Z,4.37
2017-10-09T12:25:17.318Z,15.10
2017-10-09T12:26:19.875Z,6.70
2017-10-09T12:27:22.412Z,4.57
2017-10-09T12:28:24.939Z,4.20
2017-10-09T12:29:27.504Z,3.87
2017-10-09T12:30:30.017Z,8.05
2017-10-09T12:31:33.357Z,10.32
2017-10-09T12:32:35.896Z,2.10
2017-10-09T12:33:38.416Z,2.45
2017-10-09T12:34:40.941Z,7.75
2017-10-09T12:35:43.457Z,10.43
2017-10-09T12:36:46.003Z,1.77
2017-10-09T12:37:48.571Z,3.80
2017-10-09T12:38:51.108Z,2.15
2017-10-09T12:39:53.627Z,5.12
2017-10-09T12:40:56.147Z,8.52
2017-10-09T12:41:58.665Z,3.47
2017-10-09T12:43:01.998Z,5.25
2017-10-09T12:44:05.275Z,4.22
2017-10-09T12:45:07.794Z,7.00
2017-10-09T12:46:11.091Z,8.98
2017-10-09T12:47:14.376Z,3.47
2017-10-09T12:48:17.689Z,14.93
2017-10-09T12:49:20.218Z,2.03
2017-10-09T12:50:23.538Z,4.18
2017-10-09T12:51:26.151Z,2.35
2017-10-09T12:52:28.691Z,5.75
2017-10-09T12:53:31.226Z,4.47
2017-10-09T12:54:33.744Z,3.35
2017-10-09T12:55:36.318Z,2.72
2017-10-09T12:56:38.846Z,4.40
2017-10-09T12:57:41.377Z,2.28
2017-10-09T12:58:43.914Z,2.30
2017-10-09T12:59:46.433Z,3.90
2017-10-09T13:00:48.981Z,3.10
2017-10-09T13:01:51.505Z,3.00
2017-10-09T13:02:54.072Z,10.88
2017-10-09T13:03:56.619Z,1.98
2017-10-09T13:04:59.142Z,7.55
2017-10-09T13:06:01.711Z,8.57
2017-10-09T13:07:04.997Z,7.90
2017-10-09T13:08:07.561Z,9.82
2017-10-09T13:09:10.082Z,5.80
2017-10-09T13:10:12.609Z,4.82
2017-10-09T13:11:15.133Z,3.25
2017-10-09T13:12:17.660Z,3.85
2017-10-09T13:13:20.222Z,5.53
2017-10-09T13:14:22.737Z,3.53
2017-10-09T13:15:26.032Z,5.72
2017-10-09T13:16:29.374Z,9.23
2017-10-09T13:17:31.897Z,4.25
2017-10-09T13:18:34.466Z,5.03
2017-10-09T13:19:36.998Z,1.83
2017-10-09T13:20:39.510Z,6.60
2017-10-09T13:21:42.085Z,4.53
2017-10-09T13:22:44.606Z,3.15
2017-10-09T13:23:47.925Z,5.12
2017-10-09T13:24:50.443Z,5.75
2017-10-09T13:25:52.970Z,4.18
2017-10-09T13:26:55.491Z,7.70
2017-10-09T13:27:58.789Z,5.95
2017-10-09T13:29:01.354Z,3.35
2017-10-09T13:30:03.868Z,5.18
2017-10-09T13:31:06.432Z,4.03
2017-10-09T13:32:08.958Z,2.17
2017-10-09T13:33:11.528Z,7.87
2017-10-09T13:34:14.057Z,2.97
2017-10-09T13:35:16.569Z,4.93
2017-10-09T13:36:19.097Z,7.12
2017-10-09T13:37:22.388Z,6.75
2017-10-09T13:38:25.722Z,9.57
2017-10-09T13:39:28.250Z,2.37
2017-10-09T13:40:30.765Z,3.25
2017-10-09T13:41:33.293Z,10.68
2017-10-09T13:42:35.810Z,2.78